sensor_id;sensor_type;location;lat;lon;timestamp;temperature;humidity
38854;DHT22;24606;51.992;4.198;2022-10-23T00:02:37;21.50;83.60
38854;DHT22;24606;51.992;4.198;2022-10-23T00:07:39;21.50;83.60
38854;DHT22;24606;51.992;4.198;2022-10-23T00:12:42;21.40;84.10
38854;DHT22;24606;51.992;4.198;2022-10-23T00:17:44;21.40;83.60
38854;DHT22;24606;51.992;4.198;2022-10-23T00:22:46;21.40;83.50
38854;DHT22;24606;51.992;4.198;2022-10-23T00:27:49;21.90;83.80
38854;DHT22;24606;51.992;4.198;2022-10-23T00:32:51;21.40;83.50
38854;DHT22;24606;51.992;4.198;2022-10-23T00:37:53;21.30;83.40
38854;DHT22;24606;51.992;4.198;2022-10-23T00:42:56;21.30;83.50
38854;DHT22;24606;51.992;4.198;2022-10-23T00:47:59;21.30;83.30
38854;DHT22;24606;51.992;4.198;2022-10-23T00:53:02;21.40;83.40
38854;DHT22;24606;51.992;4.198;2022-10-23T00:58:06;21.30;83.60
38854;DHT22;24606;51.992;4.198;2022-10-23T01:03:08;21.30;83.50
38854;DHT22;24606;51.992;4.198;2022-10-23T01:08:16;21.30;83.40
38854;DHT22;24606;51.992;4.198;2022-10-23T01:13:28;21.30;83.50
38854;DHT22;24606;51.992;4.198;2022-10-23T01:18:38;21.30;83.50
38854;DHT22;24606;51.992;4.198;2022-10-23T01:24:03;21.30;83.40
38854;DHT22;24606;51.992;4.198;2022-10-23T01:29:13;21.30;83.50
38854;DHT22;24606;51.992;4.198;2022-10-23T01:34:23;21.20;83.30
38854;DHT22;24606;51.992;4.198;2022-10-23T01:39:28;21.20;83.40
38854;DHT22;24606;51.992;4.198;2022-10-23T01:44:36;21.20;83.40
38854;DHT22;24606;51.992;4.198;2022-10-23T01:49:41;21.20;83.50
38854;DHT22;24606;51.992;4.198;2022-10-23T01:54:44;21.20;83.40
38854;DHT22;24606;51.992;4.198;2022-10-23T01:59:51;21.20;83.40
38854;DHT22;24606;51.992;4.198;2022-10-23T02:04:57;21.20;83.50
38854;DHT22;24606;51.992;4.198;2022-10-23T02:10:01;21.20;83.40
38854;DHT22;24606;51.992;4.198;2022-10-23T02:15:08;21.20;83.30
38854;DHT22;24606;51.992;4.198;2022-10-23T02:20:18;21.20;83.40
38854;DHT22;24606;51.992;4.198;2022-10-23T02:25:25;21.20;83.30
38854;DHT22;24606;51.992;4.198;2022-10-23T02:30:30;21.10;83.20
38854;DHT22;24606;51.992;4.198;2022-10-23T02:35:32;21.10;83.40
38854;DHT22;24606;51.992;4.198;2022-10-23T02:40:38;21.40;83.60
38854;DHT22;24606;51.992;4.198;2022-10-23T02:45:47;21.10;83.40
38854;DHT22;24606;51.992;4.198;2022-10-23T02:50:57;21.10;83.40
38854;DHT22;24606;51.992;4.198;2022-10-23T02:56:06;21.10;83.50
38854;DHT22;24606;51.992;4.198;2022-10-23T03:01:13;21.10;83.50
38854;DHT22;24606;51.992;4.198;2022-10-23T03:06:16;21.00;83.50
38854;DHT22;24606;51.992;4.198;2022-10-23T03:11:18;21.10;83.50
38854;DHT22;24606;51.992;4.198;2022-10-23T03:16:21;21.10;83.50
38854;DHT22;24606;51.992;4.198;2022-10-23T03:21:23;20.40;83.20
38854;DHT22;24606;51.992;4.198;2022-10-23T03:26:25;21.00;83.80
38854;DHT22;24606;51.992;4.198;2022-10-23T03:31:28;21.00;83.60
38854;DHT22;24606;51.992;4.198;2022-10-23T03:36:30;21.00;83.60
38854;DHT22;24606;51.992;4.198;2022-10-23T03:41:32;21.00;83.40
38854;DHT22;24606;51.992;4.198;2022-10-23T03:46:35;21.00;83.50
38854;DHT22;24606;51.992;4.198;2022-10-23T03:51:37;21.00;83.70
38854;DHT22;24606;51.992;4.198;2022-10-23T03:56:41;21.00;83.70
38854;DHT22;24606;51.992;4.198;2022-10-23T04:01:44;21.00;83.60
38854;DHT22;24606;51.992;4.198;2022-10-23T04:06:46;20.90;83.70
38854;DHT22;24606;51.992;4.198;2022-10-23T04:11:48;21.00;83.70
38854;DHT22;24606;51.992;4.198;2022-10-23T04:16:51;20.90;83.70
38854;DHT22;24606;51.992;4.198;2022-10-23T04:21:53;20.90;83.80
38854;DHT22;24606;51.992;4.198;2022-10-23T04:26:56;20.90;83.70
38854;DHT22;24606;51.992;4.198;2022-10-23T04:31:59;20.90;83.60
38854;DHT22;24606;51.992;4.198;2022-10-23T04:37:01;20.90;83.90
38854;DHT22;24606;51.992;4.198;2022-10-23T04:42:03;20.90;83.90
38854;DHT22;24606;51.992;4.198;2022-10-23T04:47:06;20.90;83.70
38854;DHT22;24606;51.992;4.198;2022-10-23T04:52:08;20.90;83.70
38854;DHT22;24606;51.992;4.198;2022-10-23T04:57:10;20.90;83.80
38854;DHT22;24606;51.992;4.198;2022-10-23T05:02:13;20.90;83.90
38854;DHT22;24606;51.992;4.198;2022-10-23T05:07:15;21.50;84.10
38854;DHT22;24606;51.992;4.198;2022-10-23T05:12:17;20.80;83.80
38854;DHT22;24606;51.992;4.198;2022-10-23T05:17:23;20.80;84.00
38854;DHT22;24606;51.992;4.198;2022-10-23T05:22:30;20.70;83.70
38854;DHT22;24606;51.992;4.198;2022-10-23T05:27:32;20.80;83.70
38854;DHT22;24606;51.992;4.198;2022-10-23T05:32:36;21.60;84.20
38854;DHT22;24606;51.992;4.198;2022-10-23T05:37:41;20.80;83.70
38854;DHT22;24606;51.992;4.198;2022-10-23T05:42:44;20.80;83.80
38854;DHT22;24606;51.992;4.198;2022-10-23T05:47:47;20.80;83.80
38854;DHT22;24606;51.992;4.198;2022-10-23T05:52:49;20.80;83.90
38854;DHT22;24606;51.992;4.198;2022-10-23T05:57:51;20.80;83.80
38854;DHT22;24606;51.992;4.198;2022-10-23T06:02:54;20.80;83.80
38854;DHT22;24606;51.992;4.198;2022-10-23T06:07:56;20.80;83.80
38854;DHT22;24606;51.992;4.198;2022-10-23T06:12:58;20.80;83.90
38854;DHT22;24606;51.992;4.198;2022-10-23T06:18:02;20.70;83.90
38854;DHT22;24606;51.992;4.198;2022-10-23T06:23:05;20.70;83.90
38854;DHT22;24606;51.992;4.198;2022-10-23T06:28:07;20.80;83.90
38854;DHT22;24606;51.992;4.198;2022-10-23T06:33:10;20.70;84.00
38854;DHT22;24606;51.992;4.198;2022-10-23T06:38:12;20.10;83.70
38854;DHT22;24606;51.992;4.198;2022-10-23T06:43:14;20.70;84.10
38854;DHT22;24606;51.992;4.198;2022-10-23T06:48:17;20.70;84.00
38854;DHT22;24606;51.992;4.198;2022-10-23T06:53:19;20.70;84.20
38854;DHT22;24606;51.992;4.198;2022-10-23T06:58:23;20.70;84.00
38854;DHT22;24606;51.992;4.198;2022-10-23T07:03:26;20.70;84.20
38854;DHT22;24606;51.992;4.198;2022-10-23T07:08:28;20.70;84.20
38854;DHT22;24606;51.992;4.198;2022-10-23T07:13:30;20.70;84.00
38854;DHT22;24606;51.992;4.198;2022-10-23T07:18:33;20.70;84.00
38854;DHT22;24606;51.992;4.198;2022-10-23T07:23:35;20.70;84.10
38854;DHT22;24606;51.992;4.198;2022-10-23T07:28:37;20.90;84.10
38854;DHT22;24606;51.992;4.198;2022-10-23T07:33:42;20.70;84.20
38854;DHT22;24606;51.992;4.198;2022-10-23T07:38:44;20.70;84.10
38854;DHT22;24606;51.992;4.198;2022-10-23T07:43:46;20.70;83.90
38854;DHT22;24606;51.992;4.198;2022-10-23T07:48:49;20.70;83.90
38854;DHT22;24606;51.992;4.198;2022-10-23T07:53:51;20.70;84.00
38854;DHT22;24606;51.992;4.198;2022-10-23T07:58:53;20.70;84.60
38854;DHT22;24606;51.992;4.198;2022-10-23T08:03:56;20.70;83.90
38854;DHT22;24606;51.992;4.198;2022-10-23T08:08:58;20.80;84.20
38854;DHT22;24606;51.992;4.198;2022-10-23T08:14:00;20.70;84.00
38854;DHT22;24606;51.992;4.198;2022-10-23T08:19:06;20.70;84.10
38854;DHT22;24606;51.992;4.198;2022-10-23T08:24:10;20.70;84.20
38854;DHT22;24606;51.992;4.198;2022-10-23T08:29:13;20.70;84.20
38854;DHT22;24606;51.992;4.198;2022-10-23T08:34:16;20.70;84.70
38854;DHT22;24606;51.992;4.198;2022-10-23T08:39:18;20.70;86.00
38854;DHT22;24606;51.992;4.198;2022-10-23T08:44:22;20.60;85.80
38854;DHT22;24606;51.992;4.198;2022-10-23T08:49:46;20.60;86.70
38854;DHT22;24606;51.992;4.198;2022-10-23T08:55:05;20.40;86.70
38854;DHT22;24606;51.992;4.198;2022-10-23T09:00:13;20.60;86.60
38854;DHT22;24606;51.992;4.198;2022-10-23T09:05:20;20.70;86.40
38854;DHT22;24606;51.992;4.198;2022-10-23T09:10:51;20.70;86.80
38854;DHT22;24606;51.992;4.198;2022-10-23T09:16:01;20.70;86.50
38854;DHT22;24606;51.992;4.198;2022-10-23T09:21:09;20.80;87.00
38854;DHT22;24606;51.992;4.198;2022-10-23T09:26:13;20.90;86.60
38854;DHT22;24606;51.992;4.198;2022-10-23T09:31:17;20.80;87.10
38854;DHT22;24606;51.992;4.198;2022-10-23T09:36:21;20.90;86.50
38854;DHT22;24606;51.992;4.198;2022-10-23T09:41:28;21.00;86.10
38854;DHT22;24606;51.992;4.198;2022-10-23T09:46:37;20.50;86.40
38854;DHT22;24606;51.992;4.198;2022-10-23T09:51:52;21.00;86.70
38854;DHT22;24606;51.992;4.198;2022-10-23T09:56:55;21.00;86.40
38854;DHT22;24606;51.992;4.198;2022-10-23T10:02:00;21.10;86.20
38854;DHT22;24606;51.992;4.198;2022-10-23T10:07:17;21.10;86.90
38854;DHT22;24606;51.992;4.198;2022-10-23T10:12:29;21.10;86.40
38854;DHT22;24606;51.992;4.198;2022-10-23T10:17:38;21.00;87.50
38854;DHT22;24606;51.992;4.198;2022-10-23T10:22:50;21.10;86.60
38854;DHT22;24606;51.992;4.198;2022-10-23T10:28:03;21.10;86.60
38854;DHT22;24606;51.992;4.198;2022-10-23T10:33:13;21.10;86.90
38854;DHT22;24606;51.992;4.198;2022-10-23T10:43:56;21.00;87.10
38854;DHT22;24606;51.992;4.198;2022-10-23T10:49:06;21.30;87.90
38854;DHT22;24606;51.992;4.198;2022-10-23T10:54:20;21.00;87.30
38854;DHT22;24606;51.992;4.198;2022-10-23T10:59:27;21.00;86.90
38854;DHT22;24606;51.992;4.198;2022-10-23T11:04:36;21.00;86.70
38854;DHT22;24606;51.992;4.198;2022-10-23T11:09:43;21.10;85.70
38854;DHT22;24606;51.992;4.198;2022-10-23T11:14:45;21.60;86.20
38854;DHT22;24606;51.992;4.198;2022-10-23T11:19:47;20.70;87.50
38854;DHT22;24606;51.992;4.198;2022-10-23T11:25:19;21.10;85.80
38854;DHT22;24606;51.992;4.198;2022-10-23T11:30:28;21.30;85.10
38854;DHT22;24606;51.992;4.198;2022-10-23T11:35:52;21.00;85.80
38854;DHT22;24606;51.992;4.198;2022-10-23T11:40:59;21.20;85.30
38854;DHT22;24606;51.992;4.198;2022-10-23T11:46:11;21.00;85.90
38854;DHT22;24606;51.992;4.198;2022-10-23T11:51:30;21.00;86.80
38854;DHT22;24606;51.992;4.198;2022-10-23T11:56:36;20.90;86.80
38854;DHT22;24606;51.992;4.198;2022-10-23T12:01:42;20.10;87.90
38854;DHT22;24606;51.992;4.198;2022-10-23T12:06:47;20.90;86.50
38854;DHT22;24606;51.992;4.198;2022-10-23T12:12:13;20.90;86.50
38854;DHT22;24606;51.992;4.198;2022-10-23T12:17:37;21.00;85.60
38854;DHT22;24606;51.992;4.198;2022-10-23T12:22:46;21.00;85.90
38854;DHT22;24606;51.992;4.198;2022-10-23T12:27:57;21.00;85.90
38854;DHT22;24606;51.992;4.198;2022-10-23T12:33:13;21.00;85.70
38854;DHT22;24606;51.992;4.198;2022-10-23T12:38:18;20.80;86.90
38854;DHT22;24606;51.992;4.198;2022-10-23T12:43:25;21.00;86.10
38854;DHT22;24606;51.992;4.198;2022-10-23T12:48:27;20.80;89.50
38854;DHT22;24606;51.992;4.198;2022-10-23T12:53:29;20.60;88.30
38854;DHT22;24606;51.992;4.198;2022-10-23T12:58:33;21.00;86.60
38854;DHT22;24606;51.992;4.198;2022-10-23T13:03:37;20.40;84.80
38854;DHT22;24606;51.992;4.198;2022-10-23T13:08:41;21.20;85.30
38854;DHT22;24606;51.992;4.198;2022-10-23T13:13:46;21.30;84.10
38854;DHT22;24606;51.992;4.198;2022-10-23T13:18:49;21.20;85.00
38854;DHT22;24606;51.992;4.198;2022-10-23T13:23:51;21.10;87.40
38854;DHT22;24606;51.992;4.198;2022-10-23T13:28:56;21.00;87.10
38854;DHT22;24606;51.992;4.198;2022-10-23T13:34:28;21.00;87.10
38854;DHT22;24606;51.992;4.198;2022-10-23T13:39:31;21.30;87.30
38854;DHT22;24606;51.992;4.198;2022-10-23T13:44:34;21.60;85.70
38854;DHT22;24606;51.992;4.198;2022-10-23T13:49:37;21.80;87.00
38854;DHT22;24606;51.992;4.198;2022-10-23T13:54:39;22.10;83.50
38854;DHT22;24606;51.992;4.198;2022-10-23T13:59:42;21.80;84.60
38854;DHT22;24606;51.992;4.198;2022-10-23T14:04:44;22.10;85.50
38854;DHT22;24606;51.992;4.198;2022-10-23T14:09:46;21.70;85.20
38854;DHT22;24606;51.992;4.198;2022-10-23T14:14:51;22.00;85.30
38854;DHT22;24606;51.992;4.198;2022-10-23T14:19:53;22.30;83.70
38854;DHT22;24606;51.992;4.198;2022-10-23T14:24:55;21.70;83.20
38854;DHT22;24606;51.992;4.198;2022-10-23T14:29:58;21.90;85.60
38854;DHT22;24606;51.992;4.198;2022-10-23T14:35:00;21.70;87.80
38854;DHT22;24606;51.992;4.198;2022-10-23T14:40:07;21.90;84.30
38854;DHT22;24606;51.992;4.198;2022-10-23T14:45:11;21.50;87.10
38854;DHT22;24606;51.992;4.198;2022-10-23T14:50:14;21.50;88.80
38854;DHT22;24606;51.992;4.198;2022-10-23T14:55:16;21.40;87.80
38854;DHT22;24606;51.992;4.198;2022-10-23T15:00:19;21.10;89.20
38854;DHT22;24606;51.992;4.198;2022-10-23T15:05:21;21.20;87.90
38854;DHT22;24606;51.992;4.198;2022-10-23T15:10:23;21.40;87.70
38854;DHT22;24606;51.992;4.198;2022-10-23T15:15:26;21.20;88.50
38854;DHT22;24606;51.992;4.198;2022-10-23T15:20:28;21.10;90.70
38854;DHT22;24606;51.992;4.198;2022-10-23T15:25:30;20.80;91.10
38854;DHT22;24606;51.992;4.198;2022-10-23T15:30:33;20.80;91.10
38854;DHT22;24606;51.992;4.198;2022-10-23T15:35:35;20.90;90.70
38854;DHT22;24606;51.992;4.198;2022-10-23T15:40:37;21.10;90.50
38854;DHT22;24606;51.992;4.198;2022-10-23T15:45:41;21.60;87.70
38854;DHT22;24606;51.992;4.198;2022-10-23T15:50:43;21.70;87.60
38854;DHT22;24606;51.992;4.198;2022-10-23T15:55:45;21.90;86.00
38854;DHT22;24606;51.992;4.198;2022-10-23T16:00:49;21.80;86.10
38854;DHT22;24606;51.992;4.198;2022-10-23T16:05:50;21.60;87.50
38854;DHT22;24606;51.992;4.198;2022-10-23T16:10:52;21.60;87.80
38854;DHT22;24606;51.992;4.198;2022-10-23T16:15:55;21.40;89.10
38854;DHT22;24606;51.992;4.198;2022-10-23T16:20:57;21.00;89.90
38854;DHT22;24606;51.992;4.198;2022-10-23T16:26:03;21.20;90.30
38854;DHT22;24606;51.992;4.198;2022-10-23T16:31:09;21.40;88.60
38854;DHT22;24606;51.992;4.198;2022-10-23T16:36:11;21.50;87.40
38854;DHT22;24606;51.992;4.198;2022-10-23T16:41:12;21.50;88.10
38854;DHT22;24606;51.992;4.198;2022-10-23T16:46:18;22.00;87.00
38854;DHT22;24606;51.992;4.198;2022-10-23T16:51:22;21.60;86.80
38854;DHT22;24606;51.992;4.198;2022-10-23T16:56:26;21.50;86.90
38854;DHT22;24606;51.992;4.198;2022-10-23T17:01:31;21.60;86.50
38854;DHT22;24606;51.992;4.198;2022-10-23T17:06:33;21.30;88.50
38854;DHT22;24606;51.992;4.198;2022-10-23T17:11:37;20.80;90.70
38854;DHT22;24606;51.992;4.198;2022-10-23T17:16:42;20.60;91.50
38854;DHT22;24606;51.992;4.198;2022-10-23T17:21:45;20.80;90.80
38854;DHT22;24606;51.992;4.198;2022-10-23T17:26:46;20.90;90.60
38854;DHT22;24606;51.992;4.198;2022-10-23T17:31:50;21.10;90.60
38854;DHT22;24606;51.992;4.198;2022-10-23T17:36:53;20.80;90.80
38854;DHT22;24606;51.992;4.198;2022-10-23T17:41:56;20.70;91.40
38854;DHT22;24606;51.992;4.198;2022-10-23T17:46:59;20.70;91.50
38854;DHT22;24606;51.992;4.198;2022-10-23T17:52:01;20.50;92.00
38854;DHT22;24606;51.992;4.198;2022-10-23T17:57:03;21.10;90.60
38854;DHT22;24606;51.992;4.198;2022-10-23T18:02:08;21.10;90.50
38854;DHT22;24606;51.992;4.198;2022-10-23T18:07:09;21.10;91.40
38854;DHT22;24606;51.992;4.198;2022-10-23T18:12:12;21.30;90.30
38854;DHT22;24606;51.992;4.198;2022-10-23T18:17:15;21.50;90.10
38854;DHT22;24606;51.992;4.198;2022-10-23T18:22:17;21.30;91.50
38854;DHT22;24606;51.992;4.198;2022-10-23T18:27:19;21.50;90.10
38854;DHT22;24606;51.992;4.198;2022-10-23T18:32:22;21.30;90.70
38854;DHT22;24606;51.992;4.198;2022-10-23T18:37:24;21.00;92.00
38854;DHT22;24606;51.992;4.198;2022-10-23T18:42:26;20.60;93.40
38854;DHT22;24606;51.992;4.198;2022-10-23T18:47:29;20.30;95.30
38854;DHT22;24606;51.992;4.198;2022-10-23T18:52:31;18.50;99.90
38854;DHT22;24606;51.992;4.198;2022-10-23T18:57:33;18.50;99.50
38854;DHT22;24606;51.992;4.198;2022-10-23T19:02:37;19.40;96.20
38854;DHT22;24606;51.992;4.198;2022-10-23T19:07:43;21.20;93.10
38854;DHT22;24606;51.992;4.198;2022-10-23T19:12:46;21.20;90.70
38854;DHT22;24606;51.992;4.198;2022-10-23T19:17:49;21.30;90.00
38854;DHT22;24606;51.992;4.198;2022-10-23T19:22:52;21.40;89.60
38854;DHT22;24606;51.992;4.198;2022-10-23T19:27:56;21.50;89.50
38854;DHT22;24606;51.992;4.198;2022-10-23T19:32:59;21.50;88.90
38854;DHT22;24606;51.992;4.198;2022-10-23T19:38:01;21.50;88.90
38854;DHT22;24606;51.992;4.198;2022-10-23T19:43:03;21.90;88.70
38854;DHT22;24606;51.992;4.198;2022-10-23T19:48:06;21.50;88.30
38854;DHT22;24606;51.992;4.198;2022-10-23T19:53:08;21.50;88.20
38854;DHT22;24606;51.992;4.198;2022-10-23T19:58:10;21.50;88.10
38854;DHT22;24606;51.992;4.198;2022-10-23T20:03:14;21.50;88.00
38854;DHT22;24606;51.992;4.198;2022-10-23T20:08:16;21.50;88.50
38854;DHT22;24606;51.992;4.198;2022-10-23T20:13:17;21.50;87.80
38854;DHT22;24606;51.992;4.198;2022-10-23T20:18:21;21.30;87.70
38854;DHT22;24606;51.992;4.198;2022-10-23T20:23:23;21.50;87.80
38854;DHT22;24606;51.992;4.198;2022-10-23T20:28:24;21.50;87.90
38854;DHT22;24606;51.992;4.198;2022-10-23T20:33:28;21.40;87.80
38854;DHT22;24606;51.992;4.198;2022-10-23T20:38:30;21.50;87.70
38854;DHT22;24606;51.992;4.198;2022-10-23T20:43:32;21.40;87.60
38854;DHT22;24606;51.992;4.198;2022-10-23T20:48:36;21.40;87.80
38854;DHT22;24606;51.992;4.198;2022-10-23T20:53:38;21.40;87.90
38854;DHT22;24606;51.992;4.198;2022-10-23T20:58:41;21.40;87.70
38854;DHT22;24606;51.992;4.198;2022-10-23T21:03:48;21.30;87.70
38854;DHT22;24606;51.992;4.198;2022-10-23T21:08:53;21.40;87.80
38854;DHT22;24606;51.992;4.198;2022-10-23T21:13:55;21.40;87.70
38854;DHT22;24606;51.992;4.198;2022-10-23T21:19:02;21.30;88.20
38854;DHT22;24606;51.992;4.198;2022-10-23T21:24:06;21.20;88.60
38854;DHT22;24606;51.992;4.198;2022-10-23T21:29:08;21.20;88.50
38854;DHT22;24606;51.992;4.198;2022-10-23T21:34:12;21.20;88.30
38854;DHT22;24606;51.992;4.198;2022-10-23T21:39:14;21.20;88.10
38854;DHT22;24606;51.992;4.198;2022-10-23T21:44:15;21.20;88.60
38854;DHT22;24606;51.992;4.198;2022-10-23T21:49:19;21.60;88.10
38854;DHT22;24606;51.992;4.198;2022-10-23T21:54:20;21.20;88.10
38854;DHT22;24606;51.992;4.198;2022-10-23T21:59:24;21.20;87.90
38854;DHT22;24606;51.992;4.198;2022-10-23T22:04:28;21.20;88.00
38854;DHT22;24606;51.992;4.198;2022-10-23T22:09:31;21.10;88.80
38854;DHT22;24606;51.992;4.198;2022-10-23T22:14:35;21.00;89.20
38854;DHT22;24606;51.992;4.198;2022-10-23T22:19:38;20.90;89.70
38854;DHT22;24606;51.992;4.198;2022-10-23T22:24:40;20.90;89.40
38854;DHT22;24606;51.992;4.198;2022-10-23T22:29:42;20.80;90.10
38854;DHT22;24606;51.992;4.198;2022-10-23T22:34:45;20.90;89.50
38854;DHT22;24606;51.992;4.198;2022-10-23T22:39:49;20.40;90.00
38854;DHT22;24606;51.992;4.198;2022-10-23T22:44:51;20.60;90.50
38854;DHT22;24606;51.992;4.198;2022-10-23T22:49:54;20.50;90.30
38854;DHT22;24606;51.992;4.198;2022-10-23T22:54:56;20.60;89.20
38854;DHT22;24606;51.992;4.198;2022-10-23T22:59:57;20.40;90.80
38854;DHT22;24606;51.992;4.198;2022-10-23T23:05:01;20.30;90.00
38854;DHT22;24606;51.992;4.198;2022-10-23T23:10:03;20.80;89.60
38854;DHT22;24606;51.992;4.198;2022-10-23T23:15:06;20.70;88.80
38854;DHT22;24606;51.992;4.198;2022-10-23T23:20:09;20.80;89.30
38854;DHT22;24606;51.992;4.198;2022-10-23T23:25:11;20.90;88.90
38854;DHT22;24606;51.992;4.198;2022-10-23T23:30:13;21.00;88.20
38854;DHT22;24606;51.992;4.198;2022-10-23T23:35:16;21.00;87.40
38854;DHT22;24606;51.992;4.198;2022-10-23T23:40:18;21.00;87.60
38854;DHT22;24606;51.992;4.198;2022-10-23T23:45:20;21.10;87.50
38854;DHT22;24606;51.992;4.198;2022-10-23T23:50:23;21.00;87.20
38854;DHT22;24606;51.992;4.198;2022-10-23T23:55:25;21.00;87.20
